Time;durP1;ratioP1;P1;durP2;ratioP2;P2;SDS_P1;SDS_P2;PMS_P1;PMS_P2;Temp;Humidity;BMP_temperature;BMP_pressure;BME280_temperature;BME280_humidity;BME280_pressure;Samples;Min_cycle;Max_cycle;Signal;HPM_P1;HPM_P2
2023/10/11 00:16:24;;;;;;;18.77;13.53;;;7.70;99.90;;;;;;4573766;30;20386;-84
2023/10/11 00:41:30;;;;;;;19.43;14.83;;;7.40;99.90;;;;;;4534801;30;20818;-83
2023/10/11 01:07:22;;;;;;;22.27;16.03;;;7.70;99.90;;;;;;4662458;29;20236;-84
2023/10/11 01:32:17;;;;;;;22.10;15.40;;;8.10;99.90;;;;;;4517286;30;20619;-85
2023/10/11 01:52:49;;;;;;;22.13;16.53;;;7.90;99.90;;;;;;4400419;31;20211;-83
2023/10/11 02:23:26;;;;;;;26.33;17.23;;;8.00;99.90;;;;;;4673544;29;20293;-84
2023/10/11 02:53:43;;;;;;;27.83;19.10;;;8.20;99.90;;;;;;4652309;29;20216;-83
2023/10/11 03:19:08;;;;;;;31.90;20.33;;;8.30;99.90;;;;;;4622542;29;20945;-84
2023/10/11 03:44:10;;;;;;;33.20;21.20;;;8.50;99.90;;;;;;4499385;30;21188;-84
2023/10/11 04:14:32;;;;;;;33.47;22.53;;;8.80;99.90;;;;;;4411063;31;20641;-84
2023/10/11 05:15:54;;;;;;;38.83;24.57;;;8.90;99.90;;;;;;4588768;30;20227;-84
2023/10/11 05:50:54;;;;;;;40.40;24.37;;;8.90;99.90;;;;;;4511381;30;20649;-82
2023/10/11 06:11:36;;;;;;;36.67;23.57;;;9.30;99.90;;;;;;4527383;30;20210;-82
2023/10/11 06:36:22;;;;;;;32.83;21.83;;;10.40;99.90;;;;;;4490286;30;20521;-83
2023/10/11 07:02:17;;;;;;;29.83;21.03;;;11.50;99.90;;;;;;4554423;30;20754;-84
2023/10/11 07:32:51;;;;;;;27.80;19.03;;;12.90;99.90;;;;;;4617671;30;20326;-82
2023/10/11 07:37:12;;;;;;;31.40;20.47;;;13.00;99.90;;;;;;4609887;30;20555;-83
2023/10/11 07:58:09;;;;;;;28.13;19.87;;;14.30;99.90;;;;;;4558934;30;20223;-81
2023/10/11 08:28:28;;;;;;;23.80;18.80;;;15.20;99.90;;;;;;4605884;29;20277;-87
2023/10/11 08:54:00;;;;;;;23.37;17.07;;;16.00;99.90;;;;;;4672888;29;20424;-83
2023/10/11 08:58:27;;;;;;;19.47;16.57;;;16.20;99.90;;;;;;4632269;29;20306;-83
2023/10/11 09:13:54;;;;;;;21.27;15.63;;;16.80;99.90;;;;;;4581327;30;20613;-85
2023/10/11 09:34:19;;;;;;;19.27;14.90;;;17.70;99.90;;;;;;4500034;30;20329;-84
2023/10/11 09:59:31;;;;;;;18.90;14.40;;;18.00;99.90;;;;;;4586117;30;21132;-83
2023/10/11 10:25:15;;;;;;;16.30;11.73;;;19.40;99.90;;;;;;4692621;29;21069;-83
2023/10/11 10:55:07;;;;;;;13.57;9.27;;;20.30;93.40;;;;;;4561741;30;20522;-83
2023/10/11 11:15:56;;;;;;;10.75;8.98;;;20.80;91.50;;;;;;4624691;29;20279;-82
2023/10/11 13:02:37;;;;;;;8.43;6.35;;;21.70;84.20;;;;;;4914175;28;20585;-83
2023/10/11 13:33:05;;;;;;;10.88;6.10;;;21.80;80.60;;;;;;4862153;28;20228;-86
2023/10/11 13:37:28;;;;;;;9.10;5.32;;;21.80;80.20;;;;;;4795323;28;20715;-85
2023/10/11 14:23:44;;;;;;;7.85;5.82;;;21.10;82.20;;;;;;4610725;29;20533;-84
2023/10/11 14:44:08;;;;;;;8.75;6.57;;;20.70;84.50;;;;;;4697591;29;20239;-84
2023/10/11 15:04:00;;;;;;;11.88;6.13;;;20.60;86.50;;;;;;4618210;29;20625;-82
2023/10/11 15:24:40;;;;;;;10.85;6.40;;;20.20;88.30;;;;;;4618583;29;20222;-84
2023/10/11 16:20:08;;;;;;;12.60;7.80;;;18.60;99.90;;;;;;4546288;30;20569;-86
2023/10/11 16:50:48;;;;;;;10.57;8.33;;;18.10;99.90;;;;;;4679621;29;20266;-86
2023/10/11 17:15:35;;;;;;;13.60;8.73;;;18.20;99.90;;;;;;4716529;29;20620;-86
2023/10/11 17:36:23;;;;;;;12.37;8.10;;;18.30;99.90;;;;;;4733282;29;20199;-86
2023/10/11 18:02:02;;;;;;;13.03;8.50;;;18.20;99.90;;;;;;4632965;29;20251;-83
2023/10/11 18:06:17;;;;;;;15.73;8.87;;;18.20;99.90;;;;;;4586464;30;20739;-86
2023/10/11 18:27:15;;;;;;;12.83;8.23;;;18.80;98.30;;;;;;4641656;30;20283;-85
2023/10/11 18:57:39;;;;;;;10.80;7.43;;;18.60;97.00;;;;;;4798713;28;20248;-84
2023/10/11 19:27:31;;;;;;;10.20;6.57;;;19.10;93.90;;;;;;4660937;29;20245;-87
2023/10/11 20:03:28;;;;;;;10.23;6.83;;;19.00;93.30;;;;;;4617896;29;20241;-85
2023/10/11 20:29:03;;;;;;;12.30;7.70;;;18.40;98.00;;;;;;4664125;29;20328;-84
2023/10/11 20:33:28;;;;;;;14.73;8.00;;;18.30;98.90;;;;;;4612628;29;20382;-84
2023/10/11 20:54:13;;;;;;;14.43;8.07;;;18.20;99.60;;;;;;4718749;29;20209;-83
2023/10/11 21:50:13;;;;;;;12.47;7.50;;;18.30;99.90;;;;;;4756549;28;20229;-84
2023/10/11 22:15:30;;;;;;;11.23;7.63;;;18.20;99.90;;;;;;4690246;29;20326;-87
2023/10/11 22:56:03;;;;;;;10.77;7.20;;;18.30;99.90;;;;;;4808901;28;20266;-83
2023/10/11 23:21:30;;;;;;;12.97;7.33;;;18.10;99.90;;;;;;4720329;29;20226;-82
2023/10/11 23:51:50;;;;;;;12.43;7.47;;;17.80;99.90;;;;;;4696559;29;20517;-85
